Time;durP1;ratioP1;P1;durP2;ratioP2;P2;SDS_P1;SDS_P2;PMS_P1;PMS_P2;Temp;Humidity;BMP_temperature;BMP_pressure;BME280_temperature;BME280_humidity;BME280_pressure;Samples;Min_cycle;Max_cycle;Signal;HPM_P1;HPM_P2
2022/02/08 00:00:14;;;;;;;4.80;2.03;;;0.10;99.90;;;;;;5060314;28;20047;-74
2022/02/08 00:02:46;;;;;;;4.90;2.10;;;0.10;99.90;;;;;;5075869;28;20059;-74
2022/02/08 00:05:20;;;;;;;9.70;3.85;;;0.10;99.90;;;;;;5059367;28;20036;-77
2022/02/08 00:07:50;;;;;;;9.93;2.42;;;0.20;99.90;;;;;;5075252;28;20068;-73
2022/02/08 00:10:25;;;;;;;5.93;2.45;;;0.20;99.90;;;;;;5058121;28;20071;-73
2022/02/08 00:12:52;;;;;;;3.88;2.20;;;0.10;99.90;;;;;;5092661;28;20052;-73
2022/02/08 00:15:25;;;;;;;12.10;2.20;;;0.10;99.90;;;;;;5094416;28;20042;-73
2022/02/08 00:17:57;;;;;;;5.00;2.23;;;0.10;99.90;;;;;;5077155;28;20055;-74
2022/02/08 00:20:29;;;;;;;8.88;2.40;;;0.10;99.90;;;;;;5076956;28;20327;-73
2022/02/08 00:23:00;;;;;;;4.70;2.20;;;0.10;99.90;;;;;;5093778;28;20453;-73
2022/02/08 00:25:32;;;;;;;5.65;2.53;;;0.10;99.90;;;;;;5060248;28;20526;-73
2022/02/08 00:27:59;;;;;;;7.40;1.90;;;0.00;99.90;;;;;;5075835;28;20039;-73
2022/02/08 00:30:30;;;;;;;9.63;2.53;;;0.00;99.90;;;;;;5075823;28;20586;-74
2022/02/08 00:33:05;;;;;;;4.75;2.30;;;0.00;99.90;;;;;;5059942;28;20044;-74
2022/02/08 00:35:32;;;;;;;7.45;2.22;;;0.00;99.90;;;;;;5075926;28;20087;-73
2022/02/08 00:37:59;;;;;;;11.45;2.47;;;0.00;99.90;;;;;;5094066;28;20109;-74
2022/02/08 00:40:27;;;;;;;6.68;2.22;;;0.00;99.90;;;;;;5075708;28;20578;-73
2022/02/08 00:43:01;;;;;;;4.20;2.13;;;0.10;99.90;;;;;;5075197;28;20495;-74
2022/02/08 00:45:48;;;;;;;6.80;2.10;;;0.10;99.90;;;;;;5091926;28;20075;-73
2022/02/08 00:48:24;;;;;;;5.35;2.47;;;0.00;99.90;;;;;;5075719;28;20105;-73
2022/02/08 00:50:56;;;;;;;7.00;1.83;;;0.00;99.90;;;;;;5076680;28;20394;-74
2022/02/08 00:53:27;;;;;;;6.82;1.90;;;0.00;99.90;;;;;;5093113;28;20110;-74
2022/02/08 00:55:59;;;;;;;6.35;2.60;;;0.00;99.90;;;;;;5075575;28;20491;-73
2022/02/08 00:58:26;;;;;;;7.95;2.05;;;-0.10;99.90;;;;;;5075599;28;20442;-73
2022/02/08 01:00:59;;;;;;;7.55;2.33;;;-0.10;99.90;;;;;;5075486;28;20044;-73
2022/02/08 01:03:31;;;;;;;5.82;2.13;;;-0.10;99.90;;;;;;5091609;28;20072;-74
2022/02/08 01:06:05;;;;;;;5.55;2.53;;;-0.10;99.90;;;;;;5059254;28;20058;-74
2022/02/08 01:08:36;;;;;;;6.40;1.67;;;-0.20;99.90;;;;;;5075017;28;20395;-73
2022/02/08 01:11:10;;;;;;;4.63;1.90;;;-0.10;99.90;;;;;;5076013;28;20040;-73
2022/02/08 01:13:39;;;;;;;6.15;2.80;;;-0.10;99.90;;;;;;5093595;28;20485;-74
2022/02/08 01:16:07;;;;;;;7.70;2.28;;;0.00;99.90;;;;;;5094072;28;20044;-73
2022/02/08 01:18:38;;;;;;;8.20;2.42;;;0.00;99.90;;;;;;5075448;28;20147;-73
2022/02/08 01:21:10;;;;;;;4.18;2.08;;;0.10;99.90;;;;;;5059071;28;20079;-74
2022/02/08 01:23:42;;;;;;;4.50;1.42;;;0.20;99.90;;;;;;5074310;28;20135;-73
2022/02/08 01:26:13;;;;;;;5.25;2.08;;;0.20;99.90;;;;;;5074559;28;20071;-74
2022/02/08 01:31:16;;;;;;;3.85;1.50;;;0.30;99.90;;;;;;5091305;28;20140;-73
2022/02/08 01:36:47;;;;;;;8.00;2.08;;;0.40;99.90;;;;;;5091319;28;20043;-73
2022/02/08 01:39:26;;;;;;;7.13;1.98;;;0.40;99.90;;;;;;5074597;28;20047;-74
2022/02/08 01:42:17;;;;;;;5.38;2.05;;;0.40;99.90;;;;;;5074318;28;20130;-73
2022/02/08 01:47:42;;;;;;;6.60;2.28;;;0.50;99.90;;;;;;5094853;28;20040;-73
2022/02/08 01:50:16;;;;;;;5.20;2.15;;;0.50;99.90;;;;;;5058649;28;20040;-73
2022/02/08 01:52:48;;;;;;;5.95;2.40;;;0.50;99.90;;;;;;5073713;28;20046;-73
2022/02/08 01:55:24;;;;;;;5.30;1.75;;;0.50;99.90;;;;;;5074116;28;20068;-74
2022/02/08 01:57:56;;;;;;;6.03;2.15;;;0.50;99.90;;;;;;5058227;28;20040;-73
2022/02/08 02:00:30;;;;;;;;;;;0.50;99.90;;;;;;5074141;28;20372;-74
2022/02/08 02:03:02;;;;;;;3.85;1.75;;;0.50;99.90;;;;;;5072984;28;20443;-73
2022/02/08 02:05:34;;;;;;;5.78;1.88;;;0.50;99.90;;;;;;5056831;28;20040;-73
2022/02/08 02:08:07;;;;;;;6.35;2.17;;;0.50;99.90;;;;;;5091481;28;20047;-73
2022/02/08 02:10:38;;;;;;;6.90;2.17;;;0.60;99.90;;;;;;5089906;28;20040;-73
2022/02/08 02:13:25;;;;;;;5.25;2.67;;;0.60;99.90;;;;;;5089715;28;20114;-73
2022/02/08 02:16:02;;;;;;;13.35;2.67;;;0.60;99.90;;;;;;5090164;28;20415;-73
2022/02/08 02:18:34;;;;;;;5.35;1.98;;;0.60;99.90;;;;;;5073843;28;20044;-73
2022/02/08 02:21:07;;;;;;;8.73;1.88;;;0.60;99.90;;;;;;5073800;28;20036;-73
2022/02/08 02:23:39;;;;;;;3.10;1.52;;;0.60;99.90;;;;;;5057498;28;20032;-73
2022/02/08 02:26:17;;;;;;;5.95;2.13;;;0.50;99.90;;;;;;5073114;28;20229;-73
2022/02/08 02:28:44;;;;;;;4.20;2.53;;;0.50;99.90;;;;;;5073051;28;20414;-73
2022/02/08 02:31:18;;;;;;;5.93;1.97;;;0.50;99.90;;;;;;5057321;28;20066;-73
2022/02/08 02:33:50;;;;;;;3.47;1.88;;;0.60;99.90;;;;;;5072428;28;20691;-74
2022/02/08 02:36:22;;;;;;;8.90;2.30;;;0.60;99.90;;;;;;5089849;28;20134;-73
2022/02/08 02:39:08;;;;;;;6.45;2.30;;;0.60;99.90;;;;;;5089344;28;20051;-73
2022/02/08 02:41:42;;;;;;;4.40;2.15;;;0.60;99.90;;;;;;5057498;28;20097;-74
2022/02/08 02:44:21;;;;;;;6.38;2.25;;;0.60;99.90;;;;;;5089781;28;20556;-74
2022/02/08 02:46:53;;;;;;;8.35;2.70;;;0.60;99.90;;;;;;5057600;28;20048;-73
2022/02/08 02:49:27;;;;;;;5.75;1.73;;;0.60;99.90;;;;;;5090076;28;20042;-73
2022/02/08 02:52:07;;;;;;;5.03;2.20;;;0.60;99.90;;;;;;5058157;28;20040;-73
2022/02/08 02:54:40;;;;;;;4.68;1.90;;;0.70;99.90;;;;;;5072840;28;20413;-73
2022/02/08 02:57:15;;;;;;;5.25;1.80;;;0.70;99.90;;;;;;5057815;28;20044;-73
2022/02/08 02:59:49;;;;;;;5.55;1.83;;;0.70;99.90;;;;;;5057505;28;20066;-73
2022/02/08 03:05:23;;;;;;;7.22;2.10;;;0.70;99.90;;;;;;5091335;28;20099;-73
2022/02/08 03:19:29;;;;;;;2.97;1.58;;;0.70;99.90;;;;;;5061706;28;20151;-73
2022/02/08 03:22:03;;;;;;;3.38;1.58;;;0.80;99.90;;;;;;5072978;28;20043;-73
2022/02/08 03:24:30;;;;;;;7.20;2.08;;;0.80;99.90;;;;;;5055796;28;20044;-73
2022/02/08 03:27:02;;;;;;;7.55;2.00;;;0.80;99.90;;;;;;5073149;28;20036;-73
2022/02/08 03:29:29;;;;;;;8.65;2.97;;;0.80;99.90;;;;;;5072834;28;20048;-74
2022/02/08 03:31:56;;;;;;;4.60;2.47;;;0.80;99.90;;;;;;5072992;28;20052;-73
2022/02/08 03:34:23;;;;;;;4.18;1.52;;;0.80;99.90;;;;;;5071764;28;20056;-73
2022/02/08 03:36:55;;;;;;;4.53;2.40;;;0.80;99.90;;;;;;5091021;28;20461;-73
2022/02/08 03:39:36;;;;;;;7.70;2.10;;;0.90;99.90;;;;;;5072826;28;20064;-73
2022/02/08 03:42:22;;;;;;;4.15;1.73;;;0.80;99.90;;;;;;5072864;28;20105;-73
2022/02/08 03:45:02;;;;;;;8.50;2.08;;;0.80;99.90;;;;;;5072592;28;20395;-73
2022/02/08 03:47:35;;;;;;;;;;;0.80;99.90;;;;;;5073078;28;20499;-73
2022/02/08 03:50:04;;;;;;;4.43;1.73;;;0.80;99.90;;;;;;5072693;28;19959;-73
2022/02/08 03:52:39;;;;;;;10.30;1.77;;;0.80;99.90;;;;;;5089966;28;20052;-73
2022/02/08 03:55:12;;;;;;;11.27;2.25;;;0.80;99.90;;;;;;5090391;28;20123;-73
2022/02/08 03:57:43;;;;;;;5.47;1.63;;;0.80;99.90;;;;;;5089705;28;20492;-73
2022/02/08 04:00:17;;;;;;;5.10;1.70;;;0.80;99.90;;;;;;5073925;28;20131;-73
2022/02/08 04:02:53;;;;;;;7.70;2.13;;;0.80;99.90;;;;;;5089432;28;20055;-73
2022/02/08 04:05:33;;;;;;;6.00;1.98;;;0.80;99.90;;;;;;5089703;28;20453;-73
2022/02/08 04:08:05;;;;;;;7.80;2.80;;;0.70;99.90;;;;;;5090611;28;20052;-73
2022/02/08 04:10:36;;;;;;;4.32;1.70;;;0.80;99.90;;;;;;5090767;28;20044;-74
2022/02/08 04:40:32;;;;;;;4.95;2.33;;;0.70;99.90;;;;;;5114586;28;20052;-73
2022/02/08 04:45:37;;;;;;;6.70;2.05;;;0.80;99.90;;;;;;5093863;28;20036;-73
2022/02/08 04:48:20;;;;;;;6.70;2.05;;;0.80;99.90;;;;;;5098124;28;20055;-73
2022/02/08 04:51:01;;;;;;;6.70;2.00;;;0.80;99.90;;;;;;5079468;28;20063;-73
2022/02/08 04:53:36;;;;;;;5.50;1.90;;;0.80;99.90;;;;;;5091816;28;20368;-73
2022/02/08 04:56:19;;;;;;;8.15;2.63;;;0.80;99.90;;;;;;5092991;28;20058;-73
2022/02/08 04:59:13;;;;;;;6.20;1.73;;;0.80;99.90;;;;;;5075649;28;20438;-74
2022/02/08 05:34:15;;;;;;;4.50;1.67;;;0.90;99.90;;;;;;5092262;28;20044;-72
2022/02/08 05:44:09;;;;;;;7.30;1.60;;;0.90;99.90;;;;;;5092657;28;20040;-72
2022/02/08 05:49:22;;;;;;;4.32;1.77;;;1.00;99.90;;;;;;5088541;28;20056;-72
2022/02/08 05:54:18;;;;;;;6.57;2.20;;;1.00;99.90;;;;;;5091051;28;20055;-72
2022/02/08 05:56:54;;;;;;;9.30;1.58;;;1.00;99.90;;;;;;5106966;28;20456;-72
2022/02/08 05:59:22;;;;;;;4.32;2.50;;;1.00;99.90;;;;;;5092086;28;20387;-73
2022/02/08 06:01:53;;;;;;;4.53;1.50;;;1.00;99.90;;;;;;5099873;28;20402;-73
2022/02/08 06:04:48;;;;;;;5.88;1.92;;;1.00;99.90;;;;;;5074386;28;20051;-72
2022/02/08 06:07:24;;;;;;;3.13;1.52;;;1.10;99.90;;;;;;5090564;28;20036;-73
2022/02/08 06:09:58;;;;;;;6.15;1.70;;;1.10;99.90;;;;;;5090084;28;20048;-72
2022/02/08 06:12:29;;;;;;;5.68;3.03;;;1.10;99.90;;;;;;5089130;28;20532;-72
2022/02/08 06:15:10;;;;;;;6.40;2.15;;;1.10;99.90;;;;;;5065579;28;20402;-72
2022/02/08 06:17:39;;;;;;;4.93;1.42;;;1.10;99.90;;;;;;5073840;28;20048;-72
2022/02/08 06:20:08;;;;;;;5.35;1.88;;;1.20;99.90;;;;;;5072692;28;20044;-72
2022/02/08 06:22:42;;;;;;;9.18;1.45;;;1.20;99.90;;;;;;5072213;28;20298;-72
2022/02/08 06:25:16;;;;;;;3.25;1.55;;;1.30;99.90;;;;;;5070140;28;20072;-73
2022/02/08 06:27:51;;;;;;;3.90;1.98;;;1.30;99.90;;;;;;5066491;28;20131;-73
2022/02/08 06:30:23;;;;;;;;;;;1.30;99.90;;;;;;5090042;28;20060;-73
2022/02/08 06:32:57;;;;;;;5.05;1.20;;;1.30;99.90;;;;;;5068383;28;19956;-73
2022/02/08 06:35:27;;;;;;;3.55;1.60;;;1.30;99.90;;;;;;5071257;28;20514;-73
2022/02/08 06:38:03;;;;;;;6.53;1.67;;;1.30;99.90;;;;;;5076482;28;20051;-73
2022/02/08 06:40:31;;;;;;;2.80;1.30;;;1.40;99.90;;;;;;5064076;28;20044;-73
2022/02/08 06:43:02;;;;;;;3.35;1.25;;;1.40;99.90;;;;;;5086882;28;20465;-73
2022/02/08 06:45:34;;;;;;;6.57;1.77;;;1.40;99.90;;;;;;5076387;28;20127;-73
2022/02/08 06:48:09;;;;;;;6.78;1.52;;;1.40;99.90;;;;;;5069282;28;20139;-73
2022/02/08 06:50:36;;;;;;;6.05;1.30;;;1.40;99.90;;;;;;5085189;28;20110;-73
2022/02/08 06:53:10;;;;;;;5.38;1.85;;;1.40;99.90;;;;;;5084204;28;20051;-73
2022/02/08 06:55:44;;;;;;;6.93;1.67;;;1.40;99.90;;;;;;5070326;28;20076;-73
2022/02/08 06:58:16;;;;;;;7.53;1.70;;;1.40;99.90;;;;;;5079384;28;20050;-73
2022/02/08 07:00:50;;;;;;;2.53;1.30;;;1.50;99.90;;;;;;5073853;28;20059;-73
2022/02/08 07:03:22;;;;;;;3.72;1.60;;;1.50;99.90;;;;;;5056098;28;20075;-73
2022/02/08 07:05:54;;;;;;;4.95;1.25;;;1.50;99.90;;;;;;5056548;28;20040;-73
2022/02/08 07:08:27;;;;;;;6.00;1.40;;;1.50;99.90;;;;;;5073388;28;20490;-73
2022/02/08 07:10:56;;;;;;;3.42;1.33;;;1.50;99.90;;;;;;5084547;28;20122;-73
2022/02/08 07:13:23;;;;;;;7.85;1.55;;;1.50;99.90;;;;;;5071880;28;20059;-73
2022/02/08 07:15:55;;;;;;;4.97;1.40;;;1.50;99.90;;;;;;5073016;28;20119;-73
2022/02/08 07:18:27;;;;;;;4.40;1.33;;;1.50;99.90;;;;;;5068796;28;20520;-73
2022/02/08 07:21:00;;;;;;;5.45;1.45;;;1.50;99.90;;;;;;5092887;28;20049;-73
2022/02/08 07:23:28;;;;;;;6.22;1.38;;;1.50;99.90;;;;;;5091952;28;20058;-72
2022/02/08 07:26:00;;;;;;;4.28;1.60;;;1.50;99.90;;;;;;5074884;28;20038;-73
2022/02/08 07:28:38;;;;;;;3.25;1.40;;;1.50;99.90;;;;;;5099550;28;20471;-73
2022/02/08 07:31:16;;;;;;;2.15;1.08;;;1.50;99.90;;;;;;5060808;28;20119;-73
2022/02/08 07:34:07;;;;;;;3.05;1.08;;;1.60;99.90;;;;;;5071837;28;20050;-74
2022/02/08 07:39:11;;;;;;;4.50;1.10;;;1.60;99.90;;;;;;5071926;28;20254;-73
2022/02/08 07:41:42;;;;;;;3.88;1.00;;;1.70;99.90;;;;;;5055662;28;20047;-73
2022/02/08 07:44:14;;;;;;;1.75;0.90;;;1.70;99.90;;;;;;5077564;28;20499;-73
2022/02/08 07:46:45;;;;;;;3.35;1.00;;;1.70;99.90;;;;;;5076512;28;20060;-73
2022/02/08 07:49:19;;;;;;;6.40;1.80;;;1.80;99.90;;;;;;5088856;28;20036;-73
2022/02/08 07:51:46;;;;;;;5.13;1.00;;;1.80;99.90;;;;;;5100859;28;20060;-74
2022/02/08 07:54:13;;;;;;;5.82;0.95;;;1.80;99.90;;;;;;5087499;28;20071;-73
2022/02/08 07:56:40;;;;;;;4.90;1.48;;;1.80;99.90;;;;;;5084859;28;20107;-73
2022/02/08 07:59:13;;;;;;;4.03;1.23;;;1.80;99.90;;;;;;5088557;28;20072;-73
2022/02/08 08:01:40;;;;;;;4.30;1.40;;;1.90;99.90;;;;;;5067242;28;20078;-73
2022/02/08 08:04:07;;;;;;;6.15;1.48;;;1.90;99.90;;;;;;5089783;28;20080;-73
2022/02/08 08:06:38;;;;;;;4.28;1.20;;;1.90;99.90;;;;;;5091592;28;20499;-73
2022/02/08 08:09:10;;;;;;;2.72;0.95;;;2.00;99.90;;;;;;5078533;28;20164;-73
2022/02/08 08:11:45;;;;;;;6.78;1.40;;;2.00;99.90;;;;;;5079319;28;20578;-73
2022/02/08 08:14:21;;;;;;;2.53;1.10;;;2.10;99.90;;;;;;5067091;28;20040;-73
2022/02/08 08:17:03;;;;;;;3.90;1.00;;;2.20;99.90;;;;;;5075242;28;20048;-73
2022/02/08 08:19:37;;;;;;;9.20;1.55;;;2.20;99.90;;;;;;5091339;28;20484;-73
2022/02/08 08:22:09;;;;;;;4.57;1.90;;;2.20;99.90;;;;;;5090757;28;20068;-73
2022/02/08 08:24:42;;;;;;;5.57;1.20;;;2.20;99.90;;;;;;5075705;28;20132;-73
2022/02/08 08:27:10;;;;;;;4.47;1.92;;;2.30;99.90;;;;;;5068342;28;20154;-73
2022/02/08 08:29:37;;;;;;;6.15;1.80;;;2.30;99.90;;;;;;5088188;28;20044;-73
2022/02/08 08:32:09;;;;;;;4.05;1.45;;;2.30;99.90;;;;;;5092541;28;20453;-73
2022/02/08 08:34:41;;;;;;;1.80;1.23;;;2.30;99.90;;;;;;5074961;28;20163;-73
2022/02/08 08:37:14;;;;;;;6.23;1.43;;;2.40;99.90;;;;;;5092113;28;20047;-73
2022/02/08 08:39:48;;;;;;;7.85;1.65;;;2.40;99.90;;;;;;5074783;28;20789;-73
2022/02/08 08:42:49;;;;;;;3.03;1.23;;;2.40;99.90;;;;;;5087306;28;20127;-73
2022/02/08 08:51:06;;;;;;;3.92;1.40;;;2.40;99.90;;;;;;5091764;28;20052;-74
2022/02/08 08:53:34;;;;;;;5.07;1.25;;;2.50;99.90;;;;;;5087324;28;20206;-73
2022/02/08 08:56:06;;;;;;;8.60;1.33;;;2.50;99.90;;;;;;5092273;28;20494;-74
2022/02/08 08:58:32;;;;;;;4.93;1.42;;;2.50;99.90;;;;;;5093039;28;20078;-73
2022/02/08 09:01:05;;;;;;;5.82;1.08;;;2.50;99.90;;;;;;5073721;28;20169;-73
2022/02/08 09:03:31;;;;;;;4.30;1.30;;;2.50;99.90;;;;;;5084489;28;20050;-73
2022/02/08 09:06:03;;;;;;;6.95;1.42;;;2.50;99.90;;;;;;5085005;28;20384;-73
2022/02/08 09:08:39;;;;;;;2.92;1.10;;;2.60;99.90;;;;;;5092257;28;20394;-73
2022/02/08 09:11:18;;;;;;;7.57;1.35;;;2.60;99.90;;;;;;5070395;28;20042;-73
2022/02/08 09:14:03;;;;;;;3.85;0.95;;;2.60;99.90;;;;;;5073065;28;20036;-73
2022/02/08 09:16:46;;;;;;;3.22;1.00;;;2.60;99.90;;;;;;5073278;28;20112;-73
2022/02/08 09:24:49;;;;;;;6.22;1.55;;;2.60;99.90;;;;;;5091841;28;20503;-73
2022/02/08 09:30:06;;;;;;;5.28;1.45;;;2.60;99.90;;;;;;5072213;28;20102;-73
2022/02/08 09:35:11;;;;;;;2.90;1.08;;;2.60;99.90;;;;;;5090629;28;20032;-73
2022/02/08 09:37:44;;;;;;;5.70;1.92;;;2.70;99.90;;;;;;5074603;28;20054;-73
2022/02/08 09:40:19;;;;;;;5.93;1.75;;;2.70;99.90;;;;;;5092238;28;20459;-74
2022/02/08 09:42:52;;;;;;;3.10;1.15;;;2.70;99.90;;;;;;5068896;28;20098;-73
2022/02/08 09:45:24;;;;;;;2.67;1.00;;;2.80;99.90;;;;;;5057211;28;20043;-73
2022/02/08 09:50:32;;;;;;;1.98;0.80;;;2.90;99.90;;;;;;5092136;28;20570;-73
2022/02/08 09:53:01;;;;;;;5.25;1.42;;;2.90;99.90;;;;;;5079807;28;20036;-73
2022/02/08 09:55:36;;;;;;;4.82;1.27;;;3.00;99.90;;;;;;5073952;28;20036;-73
2022/02/08 09:58:05;;;;;;;2.47;0.85;;;3.00;99.90;;;;;;5057570;28;20054;-74
2022/02/08 10:00:39;;;;;;;3.63;0.90;;;3.10;99.90;;;;;;5057230;28;20075;-73
2022/02/08 10:03:12;;;;;;;;;;;3.10;99.90;;;;;;5057233;28;20071;-74
2022/02/08 10:06:02;;;;;;;2.30;1.20;;;3.20;99.90;;;;;;5058161;28;19986;-74
2022/02/08 10:08:33;;;;;;;5.82;1.88;;;3.20;99.90;;;;;;5074074;28;20117;-73
2022/02/08 10:11:11;;;;;;;2.30;0.70;;;3.30;99.90;;;;;;5073610;28;20084;-73
2022/02/08 10:14:15;;;;;;;3.88;1.17;;;3.50;99.90;;;;;;5090557;28;20376;-74
2022/02/08 10:22:09;;;;;;;7.38;1.30;;;3.70;99.90;;;;;;5090590;28;20101;-73
2022/02/08 10:24:50;;;;;;;6.00;1.30;;;3.70;99.90;;;;;;5073303;28;20123;-73
2022/02/08 10:27:45;;;;;;;3.97;1.40;;;3.70;99.90;;;;;;5037051;28;20491;-73
2022/02/08 10:30:57;;;;;;;3.20;1.33;;;3.80;99.90;;;;;;5071264;28;20483;-73
2022/02/08 10:39:20;;;;;;;4.32;1.05;;;4.00;99.90;;;;;;5072538;28;20133;-73
2022/02/08 10:41:53;;;;;;;4.28;0.90;;;4.00;99.90;;;;;;5073494;28;20139;-73
2022/02/08 10:44:20;;;;;;;3.63;0.90;;;4.10;99.90;;;;;;5090914;28;20076;-73
2022/02/08 10:47:00;;;;;;;2.00;0.70;;;4.20;99.90;;;;;;5090363;28;20499;-73
2022/02/08 10:49:33;;;;;;;8.15;1.52;;;4.20;99.90;;;;;;5073602;28;20533;-73
2022/02/08 10:52:02;;;;;;;4.13;0.88;;;4.30;99.90;;;;;;5089820;28;20055;-73
2022/02/08 10:54:43;;;;;;;4.70;0.93;;;4.40;99.90;;;;;;5061658;28;20089;-74
2022/02/08 10:57:25;;;;;;;6.70;1.25;;;4.50;99.90;;;;;;5061451;28;20048;-73
2022/02/08 11:00:02;;;;;;;3.17;1.10;;;4.60;99.90;;;;;;5051640;28;20044;-73
2022/02/08 11:02:43;;;;;;;3.13;1.13;;;4.60;99.90;;;;;;5069468;28;20135;-73
2022/02/08 11:05:41;;;;;;;4.32;1.35;;;4.50;99.90;;;;;;5057015;28;20123;-73
2022/02/08 11:08:33;;;;;;;2.80;0.98;;;4.50;99.90;;;;;;5057108;28;20044;-73
2022/02/08 11:22:47;;;;;;;3.33;1.10;;;4.50;99.90;;;;;;5071569;28;20048;-73
2022/02/08 11:25:30;;;;;;;4.07;0.90;;;4.60;99.90;;;;;;5091073;28;20127;-73
2022/02/08 11:28:45;;;;;;;5.13;1.35;;;4.60;99.90;;;;;;5072658;28;20475;-73
2022/02/08 11:31:38;;;;;;;2.90;1.13;;;4.60;99.90;;;;;;5090903;28;20127;-73
2022/02/08 11:45:39;;;;;;;4.00;0.80;;;4.70;99.90;;;;;;5093766;28;20052;-73
2022/02/08 11:48:29;;;;;;;4.82;0.75;;;4.70;99.90;;;;;;5056338;28;20046;-73
2022/02/08 11:54:27;;;;;;;7.20;1.30;;;4.80;99.90;;;;;;5076074;28;20036;-73
2022/02/08 12:07:58;;;;;;;4.50;1.45;;;4.80;99.90;;;;;;5076342;28;20040;-73
2022/02/08 12:13:21;;;;;;;2.33;0.75;;;4.80;99.90;;;;;;5093647;28;20139;-73
2022/02/08 12:28:02;;;;;;;2.25;0.80;;;5.00;99.90;;;;;;5084029;28;20110;-74
2022/02/08 13:14:49;;;;;;;2.70;0.85;;;6.00;99.90;;;;;;5086061;28;20036;-74
2022/02/08 14:01:44;;;;;;;3.20;1.00;;;6.50;99.90;;;;;;5091532;28;20040;-73
2022/02/08 14:07:03;;;;;;;2.10;1.08;;;6.50;99.90;;;;;;5073253;28;20148;-73
2022/02/08 14:12:58;;;;;;;3.67;1.00;;;6.50;99.90;;;;;;5051545;28;20040;-74
2022/02/08 14:18:24;;;;;;;4.78;0.90;;;6.50;99.90;;;;;;5068390;28;20056;-73
2022/02/08 14:32:01;;;;;;;7.90;1.20;;;6.40;99.90;;;;;;5068922;28;20058;-74
2022/02/08 14:37:18;;;;;;;1.67;0.88;;;6.50;99.90;;;;;;5088342;28;20044;-73
2022/02/08 15:11:06;;;;;;;2.33;0.70;;;7.10;99.90;;;;;;5074154;28;20056;-73
2022/02/08 15:13:35;;;;;;;1.88;1.02;;;7.10;99.90;;;;;;5090130;28;20036;-73
2022/02/08 15:18:33;;;;;;;3.05;0.85;;;7.00;99.90;;;;;;5099657;28;20036;-72
2022/02/08 15:21:01;;;;;;;2.78;0.93;;;7.00;99.90;;;;;;5070412;28;20052;-73
2022/02/08 15:23:33;;;;;;;1.88;0.85;;;6.90;99.90;;;;;;5090890;28;20573;-73
2022/02/08 15:26:05;;;;;;;3.15;1.23;;;6.80;99.90;;;;;;5074039;28;20533;-73
2022/02/08 15:28:39;;;;;;;4.18;0.88;;;6.70;99.90;;;;;;5095440;28;20058;-73
2022/02/08 15:31:11;;;;;;;5.40;1.25;;;6.60;99.90;;;;;;5056880;28;20033;-72
2022/02/08 15:33:43;;;;;;;5.68;1.30;;;6.60;99.90;;;;;;5073868;28;20036;-73
2022/02/08 15:36:16;;;;;;;3.90;0.90;;;6.50;99.90;;;;;;5071875;28;20126;-73
2022/02/08 15:38:53;;;;;;;5.43;1.10;;;6.60;99.90;;;;;;5055912;28;20044;-73
2022/02/08 15:41:25;;;;;;;1.80;0.85;;;6.50;99.90;;;;;;5064785;28;20059;-72
2022/02/08 15:43:57;;;;;;;2.53;0.85;;;6.50;99.90;;;;;;5099171;28;20036;-73
2022/02/08 15:46:26;;;;;;;3.67;0.90;;;6.40;99.90;;;;;;5091357;28;20113;-73
2022/02/08 15:48:58;;;;;;;5.32;0.88;;;6.40;99.90;;;;;;5072480;28;20414;-72
2022/02/08 15:51:37;;;;;;;1.83;0.95;;;6.30;99.90;;;;;;5083176;28;20036;-72
2022/02/08 16:07:35;;;;;;;15.50;8.48;;;6.00;99.90;;;;;;5091163;28;20048;-73
2022/02/08 16:10:18;;;;;;;41.28;19.80;;;5.90;99.90;;;;;;5073341;28;20051;-73
2022/02/08 16:16:09;;;;;;;60.42;25.80;;;5.40;99.90;;;;;;5076232;28;20051;-73
2022/02/08 16:18:51;;;;;;;31.70;17.88;;;4.90;99.90;;;;;;5099941;28;20044;-73
2022/02/08 16:31:59;;;;;;;4.50;1.80;;;4.10;99.90;;;;;;5099770;28;20046;-73
2022/02/08 16:57:10;;;;;;;2.55;1.20;;;3.50;99.90;;;;;;5041405;28;20049;-73
2022/02/08 16:59:39;;;;;;;2.72;1.33;;;3.40;99.90;;;;;;5078714;28;20486;-74
2022/02/08 17:02:17;;;;;;;;;;;3.40;99.90;;;;;;5061011;28;20071;-73
2022/02/08 17:04:49;;;;;;;3.28;0.95;;;3.30;99.90;;;;;;5092945;28;19931;-74
2022/02/08 17:07:22;;;;;;;2.25;1.42;;;3.20;99.90;;;;;;5091157;28;20044;-73
2022/02/08 17:09:56;;;;;;;5.28;1.38;;;3.30;99.90;;;;;;5092171;28;20131;-72
2022/02/08 17:47:57;;;;;;;3.88;2.13;;;3.80;99.90;;;;;;5088032;28;20495;-73
2022/02/08 17:50:28;;;;;;;3.38;1.45;;;3.80;99.90;;;;;;5088443;28;20094;-72
2022/02/08 17:53:00;;;;;;;3.80;1.33;;;3.80;99.90;;;;;;5074169;28;20040;-73
2022/02/08 17:55:29;;;;;;;2.85;1.10;;;3.70;99.90;;;;;;5092140;28;20058;-72
2022/02/08 17:58:02;;;;;;;1.88;1.20;;;3.50;99.90;;;;;;5074879;28;20142;-73
2022/02/08 18:00:34;;;;;;;10.13;5.13;;;3.40;99.90;;;;;;5094049;28;20426;-72
2022/02/08 18:03:05;;;;;;;5.07;3.40;;;3.30;99.90;;;;;;5055083;28;20044;-72
2022/02/08 18:05:38;;;;;;;19.40;10.40;;;3.10;99.90;;;;;;5085534;28;20064;-72
2022/02/08 18:08:13;;;;;;;18.90;11.00;;;3.00;99.90;;;;;;5082454;28;20441;-73
2022/02/08 18:10:48;;;;;;;61.10;32.35;;;2.90;99.90;;;;;;5057474;28;20075;-73
2022/02/08 18:13:19;;;;;;;51.67;31.90;;;2.80;99.90;;;;;;5090512;28;20618;-72
2022/02/08 18:15:51;;;;;;;21.67;15.02;;;2.80;99.90;;;;;;5072273;28;20054;-73
2022/02/08 18:18:28;;;;;;;15.13;8.15;;;2.80;99.90;;;;;;5074329;28;20430;-73
2022/02/08 18:21:07;;;;;;;8.27;5.50;;;2.90;99.90;;;;;;5056913;28;20572;-72
2022/02/08 19:19:22;;;;;;;9.13;4.30;;;2.90;99.90;;;;;;5085822;28;20039;-73
2022/02/08 19:21:55;;;;;;;6.32;2.92;;;2.80;99.90;;;;;;5068866;28;20040;-73
2022/02/08 19:24:27;;;;;;;10.43;5.75;;;2.70;99.90;;;;;;5077002;28;20050;-73
2022/02/08 19:27:01;;;;;;;6.53;4.15;;;2.60;99.90;;;;;;5071709;28;20044;-72
2022/02/08 19:29:36;;;;;;;6.47;3.95;;;2.50;99.90;;;;;;5066784;28;20032;-73
2022/02/08 19:32:07;;;;;;;5.88;4.28;;;2.40;99.90;;;;;;5072105;28;20056;-73
2022/02/08 19:34:41;;;;;;;6.75;2.78;;;2.30;99.90;;;;;;5071923;28;20510;-73
2022/02/08 19:37:16;;;;;;;4.88;2.90;;;2.20;99.90;;;;;;5055322;28;20036;-72
2022/02/08 19:39:44;;;;;;;5.72;3.25;;;2.10;99.90;;;;;;5083780;28;20043;-73
2022/02/08 19:42:12;;;;;;;7.68;3.70;;;2.00;99.90;;;;;;5068222;28;20423;-73
2022/02/08 19:44:53;;;;;;;7.00;4.28;;;2.00;99.90;;;;;;5080327;28;20039;-73
2022/02/08 19:47:25;;;;;;;4.97;2.90;;;1.90;99.90;;;;;;5093861;28;20032;-73
2022/02/08 19:49:58;;;;;;;5.65;2.30;;;1.90;99.90;;;;;;5072556;28;20064;-73
2022/02/08 19:52:25;;;;;;;4.57;2.50;;;1.90;99.90;;;;;;5089109;28;20487;-73
2022/02/08 19:57:38;;;;;;;6.88;2.20;;;1.70;99.90;;;;;;5070634;28;20119;-72
2022/02/08 20:00:16;;;;;;;7.05;2.67;;;1.80;99.90;;;;;;5084953;28;20040;-73
2022/02/08 20:02:52;;;;;;;7.50;4.60;;;1.80;99.90;;;;;;5089677;28;20036;-72
2022/02/08 20:05:29;;;;;;;7.60;3.17;;;1.80;99.90;;;;;;5065979;28;20062;-72
2022/02/08 20:08:02;;;;;;;5.07;2.65;;;1.80;99.90;;;;;;5083391;28;20037;-73
2022/02/08 20:10:34;;;;;;;;;;;1.80;99.90;;;;;;5055531;28;20582;-73
2022/02/08 20:13:06;;;;;;;7.72;3.10;;;1.80;99.90;;;;;;5079560;28;19927;-72
2022/02/08 20:15:33;;;;;;;7.53;4.18;;;1.80;99.90;;;;;;5091930;28;20398;-74
2022/02/08 20:18:05;;;;;;;5.88;3.70;;;1.80;99.90;;;;;;5078906;28;20036;-73
2022/02/08 20:20:36;;;;;;;7.15;3.35;;;1.80;99.90;;;;;;5087015;28;20402;-73
2022/02/08 20:23:05;;;;;;;5.63;3.33;;;1.80;99.90;;;;;;5071493;28;20147;-72
2022/02/08 20:25:33;;;;;;;7.63;3.28;;;1.90;99.90;;;;;;5067544;28;20071;-73
2022/02/08 20:28:12;;;;;;;5.03;3.55;;;2.00;99.90;;;;;;5093226;28;20526;-73
2022/02/08 20:30:44;;;;;;;7.30;3.35;;;1.90;99.90;;;;;;5067582;28;20459;-73
2022/02/08 20:33:16;;;;;;;4.97;3.45;;;1.80;99.90;;;;;;5056656;28;20036;-73
2022/02/08 20:35:48;;;;;;;7.45;3.80;;;1.80;99.90;;;;;;5066536;28;20045;-73
2022/02/08 20:38:19;;;;;;;8.05;3.33;;;1.70;99.90;;;;;;5092930;28;20165;-73
2022/02/08 20:40:53;;;;;;;6.30;3.42;;;1.70;99.90;;;;;;5074620;28;20127;-73
2022/02/08 20:43:31;;;;;;;5.45;3.33;;;1.60;99.90;;;;;;5091262;28;20044;-73
2022/02/08 20:46:06;;;;;;;7.97;3.03;;;1.60;99.90;;;;;;5075468;28;20047;-73
2022/02/08 20:48:38;;;;;;;7.38;3.72;;;1.50;99.90;;;;;;5072901;28;20046;-73
2022/02/08 20:51:05;;;;;;;6.88;3.60;;;1.40;99.90;;;;;;5057374;28;20620;-72
2022/02/08 20:56:25;;;;;;;5.13;3.80;;;1.40;99.90;;;;;;5090851;28;20040;-73
2022/02/08 21:01:28;;;;;;;6.10;4.10;;;1.30;99.90;;;;;;5074277;28;20082;-72
2022/02/08 21:06:34;;;;;;;7.03;3.80;;;1.40;99.90;;;;;;5074783;28;19919;-73
2022/02/08 21:09:06;;;;;;;6.72;3.63;;;1.40;99.90;;;;;;5092928;28;20040;-73
2022/02/08 21:11:40;;;;;;;8.55;4.82;;;1.40;99.90;;;;;;5092361;28;20040;-73
2022/02/08 21:14:13;;;;;;;;;;;1.50;99.90;;;;;;5092529;28;20115;-73
2022/02/08 21:16:54;;;;;;;7.85;4.38;;;1.50;99.90;;;;;;5092536;28;19919;-73
2022/02/08 21:19:24;;;;;;;6.78;4.57;;;1.50;99.90;;;;;;5090609;28;20046;-73
2022/02/08 21:21:56;;;;;;;8.27;4.57;;;1.60;99.90;;;;;;5075677;28;20043;-73
2022/02/08 21:24:30;;;;;;;7.20;4.72;;;1.60;99.90;;;;;;5092343;28;20494;-72
2022/02/08 21:27:00;;;;;;;9.82;5.32;;;1.60;99.90;;;;;;5074832;28;20190;-73
2022/02/08 21:54:10;;;;;;;12.90;6.55;;;1.60;99.90;;;;;;5065823;28;20146;-73
2022/02/08 21:56:42;;;;;;;9.35;6.60;;;1.50;99.90;;;;;;5057505;28;20230;-73